sensor_id;sensor_type;location;lat;lon;timestamp;pressure;altitude;pressure_sealevel;temperature;humidity
64354;BME280;50681;53.334;-6.536;2022-11-18T00:02:07;99011.66;;;9.38;100.00
64354;BME280;50681;53.334;-6.536;2022-11-18T00:04:32;99009.06;;;9.59;100.00
64354;BME280;50681;53.334;-6.536;2022-11-18T00:06:58;99036.75;;;9.95;100.00
64354;BME280;50681;53.334;-6.536;2022-11-18T00:09:23;99043.38;;;9.97;100.00
64354;BME280;50681;53.334;-6.536;2022-11-18T00:11:49;99033.34;;;9.50;100.00
64354;BME280;50681;53.334;-6.536;2022-11-18T00:14:33;99015.44;;;9.46;100.00
64354;BME280;50681;53.334;-6.536;2022-11-18T00:17:01;99059.59;;;9.89;100.00
64354;BME280;50681;53.334;-6.536;2022-11-18T00:19:29;99052.56;;;10.05;100.00
64354;BME280;50681;53.334;-6.536;2022-11-18T00:21:55;99055.06;;;10.19;100.00
64354;BME280;50681;53.334;-6.536;2022-11-18T00:24:23;99058.53;;;9.63;100.00
64354;BME280;50681;53.334;-6.536;2022-11-18T00:26:49;99061.66;;;9.83;100.00
64354;BME280;50681;53.334;-6.536;2022-11-18T00:29:15;99059.91;;;9.96;100.00
64354;BME280;50681;53.334;-6.536;2022-11-18T00:31:41;99048.69;;;9.67;100.00
64354;BME280;50681;53.334;-6.536;2022-11-18T00:34:12;99073.06;;;9.89;100.00
64354;BME280;50681;53.334;-6.536;2022-11-18T00:36:39;99052.38;;;9.45;100.00
64354;BME280;50681;53.334;-6.536;2022-11-18T00:39:04;99078.91;;;10.08;100.00
64354;BME280;50681;53.334;-6.536;2022-11-18T00:41:29;99063.16;;;9.45;100.00
64354;BME280;50681;53.334;-6.536;2022-11-18T00:44:15;99082.91;;;9.84;100.00
64354;BME280;50681;53.334;-6.536;2022-11-18T00:46:41;99079.13;;;9.41;100.00
64354;BME280;50681;53.334;-6.536;2022-11-18T00:49:07;99060.91;;;9.56;100.00
64354;BME280;50681;53.334;-6.536;2022-11-18T00:51:33;99084.06;;;9.48;100.00
64354;BME280;50681;53.334;-6.536;2022-11-18T00:53:58;99070.91;;;9.29;100.00
64354;BME280;50681;53.334;-6.536;2022-11-18T00:56:24;99072.78;;;9.02;100.00
64354;BME280;50681;53.334;-6.536;2022-11-18T00:58:49;99110.22;;;9.39;100.00
64354;BME280;50681;53.334;-6.536;2022-11-18T01:01:15;99101.78;;;9.84;100.00
64354;BME280;50681;53.334;-6.536;2022-11-18T01:03:40;99088.81;;;9.43;100.00
64354;BME280;50681;53.334;-6.536;2022-11-18T01:06:06;99085.81;;;9.62;100.00
64354;BME280;50681;53.334;-6.536;2022-11-18T01:08:31;99097.06;;;9.29;100.00
64354;BME280;50681;53.334;-6.536;2022-11-18T01:10:57;99112.44;;;9.72;100.00
64354;BME280;50681;53.334;-6.536;2022-11-18T01:13:42;99107.19;;;9.67;100.00
64354;BME280;50681;53.334;-6.536;2022-11-18T01:16:07;99106.88;;;9.77;100.00
64354;BME280;50681;53.334;-6.536;2022-11-18T01:18:33;99091.81;;;9.50;100.00
64354;BME280;50681;53.334;-6.536;2022-11-18T01:21:00;99116.66;;;10.08;100.00
64354;BME280;50681;53.334;-6.536;2022-11-18T01:23:26;99100.13;;;10.19;100.00
64354;BME280;50681;53.334;-6.536;2022-11-18T01:25:52;99109.41;;;9.82;100.00
64354;BME280;50681;53.334;-6.536;2022-11-18T01:28:18;99118.41;;;9.95;100.00
64354;BME280;50681;53.334;-6.536;2022-11-18T01:30:44;99106.88;;;9.68;100.00
64354;BME280;50681;53.334;-6.536;2022-11-18T01:33:10;99105.75;;;9.78;100.00
64354;BME280;50681;53.334;-6.536;2022-11-18T01:35:39;99106.25;;;9.80;100.00
64354;BME280;50681;53.334;-6.536;2022-11-18T01:38:07;99106.94;;;10.25;100.00
64354;BME280;50681;53.334;-6.536;2022-11-18T01:40:33;99116.53;;;10.52;100.00
64354;BME280;50681;53.334;-6.536;2022-11-18T01:42:59;99110.53;;;10.38;100.00
64354;BME280;50681;53.334;-6.536;2022-11-18T01:45:34;99115.94;;;10.47;100.00
64354;BME280;50681;53.334;-6.536;2022-11-18T01:48:29;99108.13;;;10.54;100.00
64354;BME280;50681;53.334;-6.536;2022-11-18T01:51:04;99123.47;;;10.62;100.00
64354;BME280;50681;53.334;-6.536;2022-11-18T01:53:34;99092.16;;;10.31;100.00
64354;BME280;50681;53.334;-6.536;2022-11-18T01:56:05;99121.31;;;10.38;100.00
64354;BME280;50681;53.334;-6.536;2022-11-18T01:58:58;99116.91;;;10.33;100.00
64354;BME280;50681;53.334;-6.536;2022-11-18T02:01:25;99103.97;;;10.00;100.00
64354;BME280;50681;53.334;-6.536;2022-11-18T02:03:52;99115.47;;;10.44;100.00
64354;BME280;50681;53.334;-6.536;2022-11-18T02:06:19;99110.16;;;10.09;100.00
64354;BME280;50681;53.334;-6.536;2022-11-18T02:08:45;99120.69;;;10.50;100.00
64354;BME280;50681;53.334;-6.536;2022-11-18T02:11:13;99120.63;;;10.58;100.00
64354;BME280;50681;53.334;-6.536;2022-11-18T02:13:58;99110.53;;;10.47;100.00
64354;BME280;50681;53.334;-6.536;2022-11-18T02:28:21;99129.38;;;10.55;100.00
64354;BME280;50681;53.334;-6.536;2022-11-18T02:30:56;99135.91;;;10.54;100.00
64354;BME280;50681;53.334;-6.536;2022-11-18T02:33:50;99124.50;;;10.49;100.00
64354;BME280;50681;53.334;-6.536;2022-11-18T02:36:23;99114.69;;;10.74;100.00
64354;BME280;50681;53.334;-6.536;2022-11-18T02:38:58;99139.50;;;10.97;100.00
64354;BME280;50681;53.334;-6.536;2022-11-18T02:41:29;99111.09;;;10.61;100.00
64354;BME280;50681;53.334;-6.536;2022-11-18T02:44:03;99133.69;;;10.86;100.00
64354;BME280;50681;53.334;-6.536;2022-11-18T02:46:32;99143.66;;;10.95;100.00
64354;BME280;50681;53.334;-6.536;2022-11-18T02:49:06;99120.31;;;10.60;100.00
64354;BME280;50681;53.334;-6.536;2022-11-18T02:51:33;99147.72;;;10.71;100.00
64354;BME280;50681;53.334;-6.536;2022-11-18T02:54:06;99156.31;;;10.64;100.00
64354;BME280;50681;53.334;-6.536;2022-11-18T02:56:34;99123.41;;;10.32;100.00
64354;BME280;50681;53.334;-6.536;2022-11-18T02:59:01;99140.47;;;10.63;100.00
64354;BME280;50681;53.334;-6.536;2022-11-18T03:01:33;99135.94;;;10.76;100.00
64354;BME280;50681;53.334;-6.536;2022-11-18T03:03:59;99147.66;;;10.50;100.00
64354;BME280;50681;53.334;-6.536;2022-11-18T03:06:34;99126.50;;;10.61;100.00
64354;BME280;50681;53.334;-6.536;2022-11-18T03:09:21;99164.13;;;10.96;100.00
64354;BME280;50681;53.334;-6.536;2022-11-18T03:20:09;99183.06;;;10.48;100.00
64354;BME280;50681;53.334;-6.536;2022-11-18T03:22:51;99183.97;;;10.61;100.00
64354;BME280;50681;53.334;-6.536;2022-11-18T03:25:19;99187.97;;;10.55;100.00
64354;BME280;50681;53.334;-6.536;2022-11-18T03:27:52;99184.94;;;10.95;100.00
64354;BME280;50681;53.334;-6.536;2022-11-18T03:30:22;99180.25;;;10.83;100.00
64354;BME280;50681;53.334;-6.536;2022-11-18T03:33:01;99188.00;;;10.85;100.00
64354;BME280;50681;53.334;-6.536;2022-11-18T03:35:31;99180.88;;;10.80;100.00
64354;BME280;50681;53.334;-6.536;2022-11-18T03:38:04;99202.84;;;10.61;100.00
64354;BME280;50681;53.334;-6.536;2022-11-18T03:40:32;99214.34;;;10.88;100.00
64354;BME280;50681;53.334;-6.536;2022-11-18T03:43:17;99203.25;;;10.90;100.00
64354;BME280;50681;53.334;-6.536;2022-11-18T03:45:48;99200.75;;;10.76;100.00
64354;BME280;50681;53.334;-6.536;2022-11-18T03:48:17;99214.81;;;10.90;100.00
64354;BME280;50681;53.334;-6.536;2022-11-18T03:50:59;99216.22;;;10.96;100.00
64354;BME280;50681;53.334;-6.536;2022-11-18T03:53:30;99209.03;;;10.70;100.00
64354;BME280;50681;53.334;-6.536;2022-11-18T03:56:09;99191.72;;;10.71;100.00
64354;BME280;50681;53.334;-6.536;2022-11-18T03:58:56;99204.72;;;10.69;100.00
64354;BME280;50681;53.334;-6.536;2022-11-18T04:01:30;99210.94;;;10.61;100.00
64354;BME280;50681;53.334;-6.536;2022-11-18T04:03:58;99204.53;;;10.27;100.00
64354;BME280;50681;53.334;-6.536;2022-11-18T04:06:30;99216.09;;;10.54;100.00
64354;BME280;50681;53.334;-6.536;2022-11-18T04:09:02;99218.94;;;10.40;100.00
64354;BME280;50681;53.334;-6.536;2022-11-18T04:11:36;99213.09;;;10.29;100.00
64354;BME280;50681;53.334;-6.536;2022-11-18T04:14:24;99216.75;;;9.98;100.00
64354;BME280;50681;53.334;-6.536;2022-11-18T04:16:51;99222.78;;;10.12;100.00
64354;BME280;50681;53.334;-6.536;2022-11-18T04:19:19;99250.84;;;10.29;100.00
64354;BME280;50681;53.334;-6.536;2022-11-18T04:21:48;99224.00;;;10.50;100.00
64354;BME280;50681;53.334;-6.536;2022-11-18T04:24:14;99239.28;;;10.20;100.00
64354;BME280;50681;53.334;-6.536;2022-11-18T04:26:39;99223.72;;;10.25;100.00
64354;BME280;50681;53.334;-6.536;2022-11-18T04:29:05;99239.91;;;10.43;100.00
64354;BME280;50681;53.334;-6.536;2022-11-18T04:31:31;99249.91;;;10.25;100.00
64354;BME280;50681;53.334;-6.536;2022-11-18T04:33:56;99255.06;;;10.74;100.00
64354;BME280;50681;53.334;-6.536;2022-11-18T04:36:22;99263.53;;;10.37;100.00
64354;BME280;50681;53.334;-6.536;2022-11-18T04:38:47;99259.72;;;10.47;100.00
64354;BME280;50681;53.334;-6.536;2022-11-18T04:41:13;99248.63;;;10.22;100.00
64354;BME280;50681;53.334;-6.536;2022-11-18T04:43:38;99271.50;;;10.25;100.00
64354;BME280;50681;53.334;-6.536;2022-11-18T04:46:04;99268.47;;;10.26;100.00
64354;BME280;50681;53.334;-6.536;2022-11-18T04:48:29;99274.03;;;10.30;100.00
64354;BME280;50681;53.334;-6.536;2022-11-18T04:51:04;99281.91;;;10.70;100.00
64354;BME280;50681;53.334;-6.536;2022-11-18T04:53:30;99283.41;;;10.41;100.00
64354;BME280;50681;53.334;-6.536;2022-11-18T04:56:02;99286.09;;;10.41;100.00
64354;BME280;50681;53.334;-6.536;2022-11-18T04:58:28;99298.91;;;10.18;100.00
64354;BME280;50681;53.334;-6.536;2022-11-18T05:00:53;99281.78;;;9.88;100.00
64354;BME280;50681;53.334;-6.536;2022-11-18T05:03:18;99296.88;;;10.06;100.00
64354;BME280;50681;53.334;-6.536;2022-11-18T05:05:44;99315.75;;;10.06;100.00
64354;BME280;50681;53.334;-6.536;2022-11-18T05:08:09;99309.22;;;10.16;100.00
64354;BME280;50681;53.334;-6.536;2022-11-18T05:10:37;99314.34;;;10.35;100.00
64354;BME280;50681;53.334;-6.536;2022-11-18T05:13:02;99312.25;;;9.97;100.00
64354;BME280;50681;53.334;-6.536;2022-11-18T05:15:28;99314.19;;;10.23;100.00
64354;BME280;50681;53.334;-6.536;2022-11-18T05:17:53;99313.09;;;10.41;100.00
64354;BME280;50681;53.334;-6.536;2022-11-18T05:20:18;99320.34;;;10.06;100.00
64354;BME280;50681;53.334;-6.536;2022-11-18T05:22:44;99319.41;;;10.19;100.00
64354;BME280;50681;53.334;-6.536;2022-11-18T05:25:09;99315.41;;;10.08;100.00
64354;BME280;50681;53.334;-6.536;2022-11-18T05:27:35;99310.47;;;9.92;100.00
64354;BME280;50681;53.334;-6.536;2022-11-18T05:30:00;99312.22;;;9.88;100.00
64354;BME280;50681;53.334;-6.536;2022-11-18T05:32:26;99324.06;;;9.61;100.00
64354;BME280;50681;53.334;-6.536;2022-11-18T05:34:51;99338.06;;;9.80;100.00
64354;BME280;50681;53.334;-6.536;2022-11-18T05:37:17;99334.13;;;9.87;100.00
64354;BME280;50681;53.334;-6.536;2022-11-18T05:39:42;99337.34;;;9.48;100.00
64354;BME280;50681;53.334;-6.536;2022-11-18T05:42:09;99340.66;;;9.54;100.00
64354;BME280;50681;53.334;-6.536;2022-11-18T05:44:53;99341.84;;;9.30;100.00
64354;BME280;50681;53.334;-6.536;2022-11-18T05:47:19;99363.38;;;9.30;100.00
64354;BME280;50681;53.334;-6.536;2022-11-18T05:49:44;99347.84;;;9.27;100.00
64354;BME280;50681;53.334;-6.536;2022-11-18T05:52:09;99322.50;;;9.28;100.00
64354;BME280;50681;53.334;-6.536;2022-11-18T05:54:38;99346.38;;;9.52;100.00
64354;BME280;50681;53.334;-6.536;2022-11-18T05:57:07;99332.31;;;9.24;100.00
64354;BME280;50681;53.334;-6.536;2022-11-18T05:59:33;99325.69;;;8.99;100.00
64354;BME280;50681;53.334;-6.536;2022-11-18T06:02:07;99343.69;;;9.52;100.00
64354;BME280;50681;53.334;-6.536;2022-11-18T06:04:50;99324.50;;;9.45;100.00
64354;BME280;50681;53.334;-6.536;2022-11-18T06:07:20;99343.06;;;9.55;100.00
64354;BME280;50681;53.334;-6.536;2022-11-18T06:09:49;99342.59;;;9.22;100.00
64354;BME280;50681;53.334;-6.536;2022-11-18T06:12:19;99355.72;;;9.46;100.00
64354;BME280;50681;53.334;-6.536;2022-11-18T06:14:58;99350.69;;;9.22;100.00
64354;BME280;50681;53.334;-6.536;2022-11-18T06:17:29;99354.25;;;9.08;100.00
64354;BME280;50681;53.334;-6.536;2022-11-18T06:19:57;99370.25;;;9.05;100.00
64354;BME280;50681;53.334;-6.536;2022-11-18T06:22:23;99369.63;;;8.85;100.00
64354;BME280;50681;53.334;-6.536;2022-11-18T06:24:50;99370.78;;;8.93;100.00
64354;BME280;50681;53.334;-6.536;2022-11-18T06:27:16;99384.13;;;8.98;100.00
64354;BME280;50681;53.334;-6.536;2022-11-18T06:29:42;99374.41;;;8.65;100.00
64354;BME280;50681;53.334;-6.536;2022-11-18T06:32:07;99388.59;;;8.80;100.00
64354;BME280;50681;53.334;-6.536;2022-11-18T06:34:33;99379.31;;;8.49;100.00
64354;BME280;50681;53.334;-6.536;2022-11-18T06:36:59;99393.25;;;8.65;100.00
64354;BME280;50681;53.334;-6.536;2022-11-18T06:39:24;99361.88;;;8.47;100.00
64354;BME280;50681;53.334;-6.536;2022-11-18T06:41:53;99392.53;;;8.96;100.00
64354;BME280;50681;53.334;-6.536;2022-11-18T06:44:19;99377.03;;;8.43;100.00
64354;BME280;50681;53.334;-6.536;2022-11-18T06:46:49;99395.84;;;8.57;100.00
64354;BME280;50681;53.334;-6.536;2022-11-18T06:49:26;99396.47;;;8.39;100.00
64354;BME280;50681;53.334;-6.536;2022-11-18T06:51:52;99417.47;;;8.65;100.00
64354;BME280;50681;53.334;-6.536;2022-11-18T06:54:17;99423.38;;;8.39;100.00
64354;BME280;50681;53.334;-6.536;2022-11-18T06:56:43;99428.25;;;8.37;100.00
64354;BME280;50681;53.334;-6.536;2022-11-18T06:59:09;99429.59;;;8.77;100.00
64354;BME280;50681;53.334;-6.536;2022-11-18T07:01:36;99438.59;;;8.58;100.00
64354;BME280;50681;53.334;-6.536;2022-11-18T07:04:02;99437.31;;;8.56;100.00
64354;BME280;50681;53.334;-6.536;2022-11-18T07:06:30;99419.63;;;8.13;100.00
64354;BME280;50681;53.334;-6.536;2022-11-18T07:08:56;99440.16;;;8.08;100.00
64354;BME280;50681;53.334;-6.536;2022-11-18T07:11:24;99447.91;;;8.10;100.00
64354;BME280;50681;53.334;-6.536;2022-11-18T07:13:53;99438.16;;;8.00;100.00
64354;BME280;50681;53.334;-6.536;2022-11-18T07:16:21;99451.69;;;7.95;100.00
64354;BME280;50681;53.334;-6.536;2022-11-18T07:18:48;99452.38;;;7.87;100.00
64354;BME280;50681;53.334;-6.536;2022-11-18T07:21:18;99456.66;;;8.16;100.00
64354;BME280;50681;53.334;-6.536;2022-11-18T07:23:45;99451.84;;;7.57;100.00
64354;BME280;50681;53.334;-6.536;2022-11-18T07:26:11;99434.38;;;7.87;100.00
64354;BME280;50681;53.334;-6.536;2022-11-18T07:28:37;99434.72;;;7.53;100.00
64354;BME280;50681;53.334;-6.536;2022-11-18T07:31:07;99451.19;;;7.93;100.00
64354;BME280;50681;53.334;-6.536;2022-11-18T07:33:34;99450.69;;;7.91;100.00
64354;BME280;50681;53.334;-6.536;2022-11-18T07:36:06;99453.97;;;7.88;100.00
64354;BME280;50681;53.334;-6.536;2022-11-18T07:38:32;99456.44;;;7.23;100.00
64354;BME280;50681;53.334;-6.536;2022-11-18T07:41:13;99467.63;;;8.05;100.00
64354;BME280;50681;53.334;-6.536;2022-11-18T07:43:41;99452.56;;;7.76;100.00
64354;BME280;50681;53.334;-6.536;2022-11-18T07:46:31;99455.34;;;7.57;100.00
64354;BME280;50681;53.334;-6.536;2022-11-18T07:48:58;99476.44;;;7.50;100.00
64354;BME280;50681;53.334;-6.536;2022-11-18T07:51:26;99466.19;;;7.52;100.00
64354;BME280;50681;53.334;-6.536;2022-11-18T07:53:52;99469.41;;;7.35;100.00
64354;BME280;50681;53.334;-6.536;2022-11-18T07:56:18;99499.94;;;7.72;100.00
64354;BME280;50681;53.334;-6.536;2022-11-18T07:58:45;99482.72;;;7.26;100.00
64354;BME280;50681;53.334;-6.536;2022-11-18T08:01:16;99496.22;;;7.54;100.00
64354;BME280;50681;53.334;-6.536;2022-11-18T08:03:42;99489.78;;;7.36;100.00
64354;BME280;50681;53.334;-6.536;2022-11-18T08:06:10;99486.84;;;7.52;100.00
64354;BME280;50681;53.334;-6.536;2022-11-18T08:08:36;99497.50;;;7.24;100.00
64354;BME280;50681;53.334;-6.536;2022-11-18T08:11:04;99495.41;;;7.54;100.00
64354;BME280;50681;53.334;-6.536;2022-11-18T08:13:30;99482.97;;;7.11;100.00
64354;BME280;50681;53.334;-6.536;2022-11-18T08:15:56;99527.47;;;7.64;100.00
64354;BME280;50681;53.334;-6.536;2022-11-18T08:18:23;99521.84;;;7.46;100.00
64354;BME280;50681;53.334;-6.536;2022-11-18T08:20:50;99526.13;;;7.67;100.00
64354;BME280;50681;53.334;-6.536;2022-11-18T08:23:18;99516.75;;;7.64;100.00
64354;BME280;50681;53.334;-6.536;2022-11-18T08:25:45;99541.41;;;7.66;100.00
64354;BME280;50681;53.334;-6.536;2022-11-18T08:28:11;99546.84;;;7.80;100.00
64354;BME280;50681;53.334;-6.536;2022-11-18T08:30:37;99553.97;;;8.18;100.00
64354;BME280;50681;53.334;-6.536;2022-11-18T08:33:03;99539.53;;;7.67;100.00
64354;BME280;50681;53.334;-6.536;2022-11-18T08:35:29;99566.97;;;7.97;100.00
64354;BME280;50681;53.334;-6.536;2022-11-18T08:37:55;99538.63;;;7.57;100.00
64354;BME280;50681;53.334;-6.536;2022-11-18T08:40:21;99550.41;;;7.75;100.00
64354;BME280;50681;53.334;-6.536;2022-11-18T08:42:46;99566.91;;;7.69;100.00
64354;BME280;50681;53.334;-6.536;2022-11-18T08:45:12;99551.56;;;7.55;100.00
64354;BME280;50681;53.334;-6.536;2022-11-18T08:47:37;99562.22;;;7.60;100.00
64354;BME280;50681;53.334;-6.536;2022-11-18T08:50:05;99554.50;;;7.87;100.00
64354;BME280;50681;53.334;-6.536;2022-11-18T08:52:32;99564.34;;;7.77;100.00
64354;BME280;50681;53.334;-6.536;2022-11-18T08:54:57;99565.50;;;7.57;100.00
64354;BME280;50681;53.334;-6.536;2022-11-18T08:57:23;99546.38;;;7.59;100.00
64354;BME280;50681;53.334;-6.536;2022-11-18T08:59:49;99582.47;;;7.86;100.00
64354;BME280;50681;53.334;-6.536;2022-11-18T09:02:16;99570.22;;;7.79;100.00
64354;BME280;50681;53.334;-6.536;2022-11-18T09:04:46;99586.84;;;8.29;100.00
64354;BME280;50681;53.334;-6.536;2022-11-18T09:07:11;99591.72;;;8.27;100.00
64354;BME280;50681;53.334;-6.536;2022-11-18T09:09:36;99587.09;;;8.13;100.00
64354;BME280;50681;53.334;-6.536;2022-11-18T09:12:02;99613.03;;;8.23;100.00
64354;BME280;50681;53.334;-6.536;2022-11-18T09:14:28;99603.50;;;8.45;100.00
64354;BME280;50681;53.334;-6.536;2022-11-18T09:16:53;99623.03;;;8.50;100.00
64354;BME280;50681;53.334;-6.536;2022-11-18T09:19:19;99616.97;;;8.59;100.00
64354;BME280;50681;53.334;-6.536;2022-11-18T09:21:45;99615.72;;;8.37;100.00
64354;BME280;50681;53.334;-6.536;2022-11-18T09:24:10;99621.50;;;8.30;100.00
64354;BME280;50681;53.334;-6.536;2022-11-18T09:26:36;99640.56;;;8.48;100.00
64354;BME280;50681;53.334;-6.536;2022-11-18T09:29:03;99646.00;;;8.76;100.00
64354;BME280;50681;53.334;-6.536;2022-11-18T09:31:28;99633.38;;;8.29;100.00
64354;BME280;50681;53.334;-6.536;2022-11-18T09:33:54;99627.00;;;8.39;100.00
64354;BME280;50681;53.334;-6.536;2022-11-18T09:36:21;99654.44;;;8.69;100.00
64354;BME280;50681;53.334;-6.536;2022-11-18T09:38:47;99651.16;;;9.00;100.00
64354;BME280;50681;53.334;-6.536;2022-11-18T09:44:22;99636.69;;;9.83;100.00
64354;BME280;50681;53.334;-6.536;2022-11-18T09:49:31;99632.38;;;9.37;100.00
64354;BME280;50681;53.334;-6.536;2022-11-18T09:52:25;99630.50;;;9.23;100.00
64354;BME280;50681;53.334;-6.536;2022-11-18T09:54:48;99649.34;;;9.09;100.00
64354;BME280;50681;53.334;-6.536;2022-11-18T09:58:06;99651.94;;;9.29;100.00
64354;BME280;50681;53.334;-6.536;2022-11-18T10:00:17;99633.03;;;9.06;100.00
64354;BME280;50681;53.334;-6.536;2022-11-18T10:03:06;99647.53;;;9.33;100.00
64354;BME280;50681;53.334;-6.536;2022-11-18T10:05:51;99641.00;;;9.11;100.00
64354;BME280;50681;53.334;-6.536;2022-11-18T10:11:05;99650.78;;;9.07;100.00
64354;BME280;50681;53.334;-6.536;2022-11-18T10:14:11;99654.81;;;9.32;100.00
64354;BME280;50681;53.334;-6.536;2022-11-18T10:16:57;99658.59;;;9.45;100.00
64354;BME280;50681;53.334;-6.536;2022-11-18T10:19:36;99670.19;;;9.18;100.00
64354;BME280;50681;53.334;-6.536;2022-11-18T10:22:24;99678.53;;;9.81;100.00
64354;BME280;50681;53.334;-6.536;2022-11-18T10:24:54;99684.97;;;9.71;100.00
64354;BME280;50681;53.334;-6.536;2022-11-18T10:27:41;99690.59;;;9.61;100.00
64354;BME280;50681;53.334;-6.536;2022-11-18T10:30:20;99686.75;;;9.76;100.00
64354;BME280;50681;53.334;-6.536;2022-11-18T10:33:01;99691.66;;;9.96;100.00
64354;BME280;50681;53.334;-6.536;2022-11-18T10:35:34;99688.03;;;9.41;100.00
64354;BME280;50681;53.334;-6.536;2022-11-18T10:38:15;99699.78;;;9.60;100.00
64354;BME280;50681;53.334;-6.536;2022-11-18T10:40:57;99689.66;;;10.48;100.00
64354;BME280;50681;53.334;-6.536;2022-11-18T10:46:34;99684.53;;;10.23;100.00
64354;BME280;50681;53.334;-6.536;2022-11-18T10:51:47;99711.22;;;10.25;100.00
64354;BME280;50681;53.334;-6.536;2022-11-18T10:54:20;99705.59;;;10.12;100.00
64354;BME280;50681;53.334;-6.536;2022-11-18T10:56:53;99705.34;;;10.23;100.00
64354;BME280;50681;53.334;-6.536;2022-11-18T11:04:40;99698.78;;;10.15;100.00
64354;BME280;50681;53.334;-6.536;2022-11-18T11:07:33;99713.19;;;10.56;100.00
64354;BME280;50681;53.334;-6.536;2022-11-18T11:12:52;99724.97;;;10.60;100.00
64354;BME280;50681;53.334;-6.536;2022-11-18T11:15:46;99717.69;;;10.69;100.00
64354;BME280;50681;53.334;-6.536;2022-11-18T11:18:28;99717.41;;;10.48;100.00
64354;BME280;50681;53.334;-6.536;2022-11-18T11:21:24;99737.53;;;10.65;100.00
64354;BME280;50681;53.334;-6.536;2022-11-18T11:23:51;99718.34;;;10.43;100.00
64354;BME280;50681;53.334;-6.536;2022-11-18T11:29:37;99725.22;;;10.81;100.00
64354;BME280;50681;53.334;-6.536;2022-11-18T11:35:27;99751.47;;;10.98;100.00
64354;BME280;50681;53.334;-6.536;2022-11-18T11:38:03;99766.66;;;11.17;100.00
64354;BME280;50681;53.334;-6.536;2022-11-18T11:54:13;99767.47;;;11.17;100.00
64354;BME280;50681;53.334;-6.536;2022-11-18T12:02:25;99774.13;;;11.20;100.00
64354;BME280;50681;53.334;-6.536;2022-11-18T12:04:57;99776.75;;;11.43;100.00
64354;BME280;50681;53.334;-6.536;2022-11-18T12:07:29;99772.59;;;10.96;100.00
64354;BME280;50681;53.334;-6.536;2022-11-18T12:10:13;99767.34;;;11.23;100.00
64354;BME280;50681;53.334;-6.536;2022-11-18T12:18:59;99781.81;;;11.36;100.00
64354;BME280;50681;53.334;-6.536;2022-11-18T12:29:37;99781.38;;;11.42;100.00
64354;BME280;50681;53.334;-6.536;2022-11-18T12:32:25;99800.22;;;11.74;100.00
64354;BME280;50681;53.334;-6.536;2022-11-18T12:40:42;99806.09;;;11.76;100.00
64354;BME280;50681;53.334;-6.536;2022-11-18T12:51:59;99794.69;;;11.97;100.00
64354;BME280;50681;53.334;-6.536;2022-11-18T12:56:59;99813.78;;;11.91;100.00
64354;BME280;50681;53.334;-6.536;2022-11-18T12:59:26;99801.66;;;11.80;100.00
64354;BME280;50681;53.334;-6.536;2022-11-18T13:05:09;99827.97;;;12.06;100.00
64354;BME280;50681;53.334;-6.536;2022-11-18T13:08:00;99830.63;;;11.88;100.00
64354;BME280;50681;53.334;-6.536;2022-11-18T13:10:45;99821.72;;;11.88;100.00
64354;BME280;50681;53.334;-6.536;2022-11-18T13:15:46;99815.63;;;11.56;100.00
64354;BME280;50681;53.334;-6.536;2022-11-18T13:18:30;99831.69;;;11.70;100.00
64354;BME280;50681;53.334;-6.536;2022-11-18T13:20:57;99838.69;;;12.38;100.00
64354;BME280;50681;53.334;-6.536;2022-11-18T13:23:29;99812.72;;;12.19;100.00
64354;BME280;50681;53.334;-6.536;2022-11-18T13:34:15;99828.00;;;12.15;100.00
64354;BME280;50681;53.334;-6.536;2022-11-18T13:36:44;99845.56;;;11.77;100.00
64354;BME280;50681;53.334;-6.536;2022-11-18T13:39:25;99847.44;;;12.43;100.00
64354;BME280;50681;53.334;-6.536;2022-11-18T13:41:59;99846.94;;;12.15;100.00
64354;BME280;50681;53.334;-6.536;2022-11-18T13:44:26;99853.28;;;12.01;100.00
64354;BME280;50681;53.334;-6.536;2022-11-18T13:46:59;99860.16;;;12.08;100.00
64354;BME280;50681;53.334;-6.536;2022-11-18T13:49:49;99858.72;;;12.28;100.00
64354;BME280;50681;53.334;-6.536;2022-11-18T13:52:34;99845.28;;;11.87;100.00
64354;BME280;50681;53.334;-6.536;2022-11-18T13:55:04;99870.16;;;12.07;100.00
64354;BME280;50681;53.334;-6.536;2022-11-18T13:57:31;99862.41;;;11.74;100.00
64354;BME280;50681;53.334;-6.536;2022-11-18T14:00:01;99871.78;;;12.43;100.00
64354;BME280;50681;53.334;-6.536;2022-11-18T14:02:27;99873.53;;;12.22;100.00
64354;BME280;50681;53.334;-6.536;2022-11-18T14:04:55;99859.84;;;12.18;100.00
64354;BME280;50681;53.334;-6.536;2022-11-18T14:07:29;99861.91;;;12.12;100.00
64354;BME280;50681;53.334;-6.536;2022-11-18T14:09:57;99875.75;;;12.11;100.00
64354;BME280;50681;53.334;-6.536;2022-11-18T14:12:29;99878.31;;;12.25;100.00
64354;BME280;50681;53.334;-6.536;2022-11-18T14:17:52;99888.31;;;12.07;100.00
64354;BME280;50681;53.334;-6.536;2022-11-18T14:20:18;99887.91;;;11.90;100.00
64354;BME280;50681;53.334;-6.536;2022-11-18T14:22:44;99894.56;;;12.33;100.00
64354;BME280;50681;53.334;-6.536;2022-11-18T14:27:42;99900.34;;;11.91;100.00
64354;BME280;50681;53.334;-6.536;2022-11-18T14:30:28;99896.97;;;12.53;100.00
64354;BME280;50681;53.334;-6.536;2022-11-18T14:33:18;99904.59;;;12.24;100.00
64354;BME280;50681;53.334;-6.536;2022-11-18T14:35:50;99898.88;;;12.34;100.00
64354;BME280;50681;53.334;-6.536;2022-11-18T14:38:18;99929.75;;;12.42;100.00
64354;BME280;50681;53.334;-6.536;2022-11-18T14:40:44;99913.16;;;12.09;100.00
64354;BME280;50681;53.334;-6.536;2022-11-18T14:43:12;99925.16;;;12.43;100.00
64354;BME280;50681;53.334;-6.536;2022-11-18T14:45:39;99934.03;;;12.17;100.00
64354;BME280;50681;53.334;-6.536;2022-11-18T14:48:04;99939.66;;;12.56;100.00
64354;BME280;50681;53.334;-6.536;2022-11-18T14:50:31;99941.47;;;12.11;100.00
64354;BME280;50681;53.334;-6.536;2022-11-18T14:52:56;99930.16;;;12.00;100.00
64354;BME280;50681;53.334;-6.536;2022-11-18T14:55:22;99914.41;;;12.02;100.00
64354;BME280;50681;53.334;-6.536;2022-11-18T14:57:47;99945.38;;;12.45;100.00
64354;BME280;50681;53.334;-6.536;2022-11-18T15:00:14;99944.22;;;12.20;100.00
64354;BME280;50681;53.334;-6.536;2022-11-18T15:02:40;99961.72;;;11.82;100.00